createdAt,value
2019-03-11T00:03:16.453Z,1.67
2019-03-11T00:08:20.878Z,1.83
2019-03-11T00:13:25.315Z,1.33
2019-03-11T00:18:29.681Z,1.37
2019-03-11T00:23:34.044Z,1.60
2019-03-11T00:28:38.382Z,1.60
2019-03-11T00:33:42.878Z,1.40
2019-03-11T00:38:47.246Z,1.50
2019-03-11T00:43:51.604Z,1.27
2019-03-11T00:48:55.947Z,1.37
2019-03-11T00:54:00.342Z,1.10
2019-03-11T00:59:04.712Z,1.13
2019-03-11T01:04:09.060Z,1.20
2019-03-11T01:09:13.394Z,1.07
2019-03-11T01:14:17.740Z,1.37
2019-03-11T01:19:22.143Z,1.30
2019-03-11T01:24:26.493Z,1.30
2019-03-11T01:29:30.847Z,1.10
2019-03-11T01:34:36.178Z,1.20
2019-03-11T01:39:40.532Z,0.97
2019-03-11T01:44:44.914Z,1.10
2019-03-11T01:49:49.250Z,1.00
2019-03-11T01:54:53.595Z,1.00
2019-03-11T01:59:57.940Z,1.37
2019-03-11T02:05:02.314Z,1.10
2019-03-11T02:10:12.541Z,1.17
2019-03-11T02:15:20.312Z,1.30
2019-03-11T02:20:24.653Z,1.30
2019-03-11T02:25:28.987Z,1.50
2019-03-11T02:30:34.462Z,1.40
2019-03-11T02:35:38.846Z,1.43
2019-03-11T02:40:43.202Z,1.50
2019-03-11T02:45:47.560Z,2.00
2019-03-11T02:50:51.925Z,1.60
2019-03-11T02:55:56.276Z,1.43
2019-03-11T03:01:17.618Z,1.47
2019-03-11T03:06:21.968Z,1.23
2019-03-11T03:11:26.418Z,1.10
2019-03-11T03:16:30.728Z,1.60
2019-03-11T03:21:35.077Z,1.40
2019-03-11T03:26:39.439Z,1.40
2019-03-11T03:31:43.870Z,1.40
2019-03-11T03:36:48.405Z,1.60
2019-03-11T03:41:52.792Z,1.40
2019-03-11T03:46:57.241Z,1.70
2019-03-11T03:52:01.614Z,1.50
2019-03-11T03:57:05.995Z,1.00
2019-03-11T04:02:11.369Z,0.90
2019-03-11T04:07:15.762Z,1.30
2019-03-11T04:12:20.114Z,1.20
2019-03-11T04:17:24.459Z,1.10
2019-03-11T04:22:28.955Z,1.10
2019-03-11T04:27:33.352Z,1.30
2019-03-11T04:32:37.807Z,1.23
2019-03-11T04:37:42.113Z,1.90
2019-03-11T04:42:46.478Z,1.53
2019-03-11T04:47:50.863Z,1.50
2019-03-11T04:52:55.748Z,1.27
2019-03-11T04:58:00.164Z,1.70
2019-03-11T05:03:04.573Z,1.63
2019-03-11T05:08:08.914Z,1.73
2019-03-11T05:13:13.247Z,1.50
2019-03-11T05:18:17.603Z,1.67
2019-03-11T05:23:21.955Z,1.60
2019-03-11T05:28:26.392Z,1.80
2019-03-11T05:33:30.734Z,1.77
2019-03-11T05:38:35.151Z,1.93
2019-03-11T05:43:39.512Z,1.93
2019-03-11T05:48:43.869Z,1.90
2019-03-11T05:53:48.231Z,1.67
2019-03-11T05:58:52.604Z,1.50
2019-03-11T06:04:01.922Z,1.90
2019-03-11T06:09:07.037Z,1.47
2019-03-11T06:14:11.475Z,1.77
2019-03-11T06:19:15.811Z,1.73
2019-03-11T06:24:22.726Z,2.12
2019-03-11T06:29:30.741Z,1.82
2019-03-11T06:34:33.263Z,1.90
2019-03-11T06:39:37.601Z,1.70
2019-03-11T06:44:42.067Z,1.87
2019-03-11T06:49:46.399Z,2.03
2019-03-11T06:54:50.770Z,1.47
2019-03-11T06:59:55.236Z,2.70
2019-03-11T07:05:02.130Z,1.80
2019-03-11T07:10:09.301Z,1.93
2019-03-11T07:15:14.991Z,1.80
2019-03-11T07:20:19.836Z,2.00
2019-03-11T07:25:24.170Z,2.13
2019-03-11T07:30:28.511Z,2.10
2019-03-11T07:35:32.864Z,1.87
2019-03-11T07:40:37.254Z,2.20
2019-03-11T07:45:41.584Z,1.73
2019-03-11T07:50:46.111Z,1.37
2019-03-11T07:55:50.499Z,1.33
2019-03-11T08:00:54.856Z,1.03
2019-03-11T08:05:59.254Z,1.10
2019-03-11T08:11:03.712Z,1.33
2019-03-11T08:16:08.047Z,1.30
2019-03-11T08:21:12.516Z,1.20
2019-03-11T08:26:16.854Z,1.10
2019-03-11T08:31:21.332Z,1.40
2019-03-11T08:36:25.665Z,1.30
2019-03-11T08:41:30.058Z,1.30
2019-03-11T08:46:34.427Z,1.30
2019-03-11T08:51:38.903Z,1.30
2019-03-11T08:56:43.261Z,1.20
2019-03-11T09:01:47.737Z,1.50
2019-03-11T09:06:52.084Z,1.30
2019-03-11T09:11:56.521Z,1.40
2019-03-11T09:17:00.862Z,1.67
2019-03-11T09:22:05.384Z,1.80
2019-03-11T09:27:09.977Z,2.10
2019-03-11T09:32:15.276Z,1.90
2019-03-11T09:37:19.659Z,1.90
2019-03-11T09:42:24.034Z,2.27
2019-03-11T09:47:28.423Z,1.80
2019-03-11T09:52:32.739Z,1.63
2019-03-11T09:57:37.091Z,1.80
2019-03-11T10:02:51.636Z,1.70
2019-03-11T10:07:47.645Z,1.60
2019-03-11T10:12:52.044Z,1.90
2019-03-11T10:17:56.412Z,2.08
2019-03-11T10:23:00.761Z,1.67
2019-03-11T10:28:05.288Z,2.03
2019-03-11T10:33:09.611Z,2.00
2019-03-11T10:38:13.999Z,2.40
2019-03-11T10:43:18.329Z,2.30
2019-03-11T10:48:23.861Z,1.90
2019-03-11T10:53:28.185Z,1.60
2019-03-11T10:58:32.522Z,1.77
2019-03-11T11:03:36.886Z,1.70
2019-03-11T11:08:41.261Z,2.00
2019-03-11T11:13:46.714Z,1.93
2019-03-11T11:18:51.152Z,1.90
2019-03-11T11:23:55.573Z,1.85
2019-03-11T11:28:59.952Z,1.90
2019-03-11T11:34:04.300Z,1.80
2019-03-11T11:39:08.735Z,2.00
2019-03-11T11:44:13.383Z,2.17
2019-03-11T11:49:17.981Z,2.30
2019-03-11T11:54:22.376Z,1.40
2019-03-11T11:59:26.713Z,1.60
2019-03-11T12:04:31.087Z,1.00
2019-03-11T12:09:35.428Z,1.23
2019-03-11T12:14:39.776Z,1.30
2019-03-11T12:19:44.098Z,1.47
2019-03-11T12:24:48.456Z,1.50
2019-03-11T12:29:52.869Z,1.30
2019-03-11T12:34:57.239Z,1.27
2019-03-11T12:40:01.508Z,1.40
2019-03-11T12:45:09.431Z,1.35
2019-03-11T12:50:19.136Z,1.47
2019-03-11T12:55:23.566Z,1.33
2019-03-11T13:00:27.999Z,1.50
2019-03-11T13:05:32.323Z,1.47
2019-03-11T13:10:36.668Z,1.60
2019-03-11T13:15:41.022Z,1.60
2019-03-11T13:20:45.377Z,1.43
2019-03-11T13:25:49.861Z,1.40
2019-03-11T13:30:54.484Z,1.00
2019-03-11T13:35:58.806Z,1.40
2019-03-11T13:41:03.219Z,1.30
2019-03-11T13:46:07.653Z,1.40
2019-03-11T13:51:12.111Z,1.57
2019-03-11T13:56:17.508Z,1.40
2019-03-11T14:01:21.891Z,1.40
2019-03-11T14:06:26.247Z,1.63
2019-03-11T14:11:30.616Z,1.50
2019-03-11T14:16:34.992Z,1.40
2019-03-11T14:21:39.342Z,1.47
2019-03-11T14:26:43.705Z,1.50
2019-03-11T14:31:48.058Z,1.30
2019-03-11T14:36:52.437Z,1.50
2019-03-11T14:41:56.788Z,1.27
2019-03-11T14:47:01.128Z,1.17
2019-03-11T14:52:05.515Z,1.30
2019-03-11T14:57:10.951Z,1.40
2019-03-11T15:02:15.434Z,1.47
2019-03-11T15:07:19.750Z,1.20
2019-03-11T15:12:24.088Z,1.40
2019-03-11T15:17:28.465Z,1.40
2019-03-11T15:22:32.824Z,1.73
2019-03-11T15:27:37.197Z,1.40
2019-03-11T15:32:41.579Z,1.63
2019-03-11T15:37:46.001Z,1.60
2019-03-11T15:42:50.358Z,1.70
2019-03-11T15:47:54.952Z,1.77
2019-03-11T15:52:59.408Z,2.00
2019-03-11T15:58:03.779Z,1.70
2019-03-11T16:03:08.127Z,1.50
2019-03-11T16:08:12.509Z,2.10
2019-03-11T16:13:16.932Z,2.00
2019-03-11T16:18:21.308Z,1.80
2019-03-11T16:23:25.695Z,1.90
2019-03-11T16:28:30.079Z,1.93
2019-03-11T16:33:34.439Z,1.77
2019-03-11T16:38:38.774Z,1.63
2019-03-11T16:43:43.109Z,1.87
2019-03-11T16:48:47.497Z,1.70
2019-03-11T16:53:51.852Z,2.00
2019-03-11T16:58:56.159Z,1.83
2019-03-11T17:04:00.526Z,1.60
2019-03-11T17:09:06.303Z,1.70
2019-03-11T17:14:12.404Z,1.87
2019-03-11T17:19:16.757Z,1.70
2019-03-11T17:24:21.207Z,1.80
2019-03-11T17:29:25.564Z,1.60
2019-03-11T17:34:29.941Z,2.40
2019-03-11T17:39:34.291Z,1.83
2019-03-11T17:44:38.825Z,1.87
2019-03-11T17:49:43.285Z,1.97
2019-03-11T17:54:47.732Z,2.10
2019-03-11T17:59:52.175Z,1.83
2019-03-11T18:04:56.624Z,2.30
2019-03-11T18:10:00.966Z,1.83
2019-03-11T18:15:09.102Z,2.20
2019-03-11T18:20:17.697Z,2.50
2019-03-11T18:25:22.240Z,2.63
2019-03-11T18:30:30.908Z,2.90
2019-03-11T18:35:35.257Z,2.40
2019-03-11T18:40:39.605Z,2.77
2019-03-11T18:45:43.939Z,2.60
2019-03-11T18:50:48.334Z,2.77
2019-03-11T18:55:52.696Z,2.70
2019-03-11T19:00:57.059Z,3.00
2019-03-11T19:06:01.497Z,3.47
2019-03-11T19:11:06.020Z,3.33
2019-03-11T19:16:10.909Z,3.70
2019-03-11T19:21:15.412Z,3.40
2019-03-11T19:26:19.807Z,4.40
2019-03-11T19:31:24.168Z,4.27
2019-03-11T19:36:28.559Z,4.10
2019-03-11T19:41:33.020Z,4.33
2019-03-11T19:46:37.447Z,5.00
2019-03-11T19:51:41.881Z,5.03
2019-03-11T19:56:46.242Z,4.67
2019-03-11T20:01:50.621Z,4.47
2019-03-11T20:06:55.087Z,5.40
2019-03-11T20:11:59.583Z,5.60
2019-03-11T20:17:03.960Z,5.60
2019-03-11T20:22:08.578Z,5.00
2019-03-11T20:27:13.289Z,4.83
2019-03-11T20:32:17.735Z,5.47
2019-03-11T20:37:22.057Z,5.50
2019-03-11T20:42:26.549Z,5.50
2019-03-11T20:47:30.979Z,5.70
2019-03-11T20:52:36.499Z,5.80
2019-03-11T20:57:40.892Z,5.67
2019-03-11T21:02:45.517Z,5.57
2019-03-11T21:07:49.877Z,5.33
2019-03-11T21:12:54.263Z,5.20
2019-03-11T21:17:58.840Z,4.70
2019-03-11T21:23:03.280Z,5.00
2019-03-11T21:28:07.648Z,4.80
2019-03-11T21:33:12.174Z,4.17
2019-03-11T21:38:16.537Z,4.37
2019-03-11T21:43:20.949Z,4.37
2019-03-11T21:48:25.563Z,4.63
2019-03-11T21:53:29.878Z,4.40
2019-03-11T21:58:34.308Z,4.47
2019-03-11T22:03:40.304Z,5.07
2019-03-11T22:08:44.717Z,5.03
2019-03-11T22:13:50.713Z,6.37
2019-03-11T22:18:55.073Z,6.90
2019-03-11T22:23:59.535Z,6.70
2019-03-11T22:29:03.942Z,6.67
2019-03-11T22:34:08.330Z,6.00
2019-03-11T22:39:13.670Z,6.10
2019-03-11T22:44:18.141Z,5.60
2019-03-11T22:49:22.496Z,5.27
2019-03-11T22:54:26.925Z,6.23
2019-03-11T22:59:31.215Z,6.00
2019-03-11T23:04:35.562Z,6.47
2019-03-11T23:09:40.463Z,6.83
2019-03-11T23:14:44.808Z,7.23
2019-03-11T23:19:49.185Z,7.85
2019-03-11T23:24:53.570Z,8.67
2019-03-11T23:29:57.926Z,9.50
2019-03-11T23:35:02.295Z,8.57
2019-03-11T23:40:08.774Z,8.57
2019-03-11T23:45:13.128Z,6.60
2019-03-11T23:50:19.423Z,6.67
2019-03-11T23:55:23.637Z,6.63
